sensor_id;sensor_type;location;lat;lon;timestamp;temperature;humidity
45383;DHT22;42455;51.660;5.824;2023-08-17T00:04:21;21.2;85.0
45383;DHT22;42455;51.660;5.824;2023-08-17T00:09:27;21.2;85.0
45383;DHT22;42455;51.660;5.824;2023-08-17T00:14:33;21.2;85.0
45383;DHT22;42455;51.660;5.824;2023-08-17T00:19:39;21.1;85.0
45383;DHT22;42455;51.660;5.824;2023-08-17T00:24:46;21.1;85.5
45383;DHT22;42455;51.660;5.824;2023-08-17T00:29:52;21.1;85.5
45383;DHT22;42455;51.660;5.824;2023-08-17T00:34:58;21.0;85.5
45383;DHT22;42455;51.660;5.824;2023-08-17T00:40:05;21.0;85.5
45383;DHT22;42455;51.660;5.824;2023-08-17T00:45:11;20.9;85.5
45383;DHT22;42455;51.660;5.824;2023-08-17T00:50:17;20.9;85.5
45383;DHT22;42455;51.660;5.824;2023-08-17T00:55:24;20.9;85.5
45383;DHT22;42455;51.660;5.824;2023-08-17T01:00:31;20.8;86.0
45383;DHT22;42455;51.660;5.824;2023-08-17T01:05:35;20.7;86.0
45383;DHT22;42455;51.660;5.824;2023-08-17T01:11:18;20.6;86.0
45383;DHT22;42455;51.660;5.824;2023-08-17T01:16:56;20.6;86.5
45383;DHT22;42455;51.660;5.824;2023-08-17T01:20:54;20.5;86.5
45383;DHT22;42455;51.660;5.824;2023-08-17T01:26:00;20.4;87.0
45383;DHT22;42455;51.660;5.824;2023-08-17T01:31:24;20.4;87.0
45383;DHT22;42455;51.660;5.824;2023-08-17T01:37:00;20.3;87.5
45383;DHT22;42455;51.660;5.824;2023-08-17T01:41:20;20.2;87.5
45383;DHT22;42455;51.660;5.824;2023-08-17T01:46:30;20.2;88.0
45383;DHT22;42455;51.660;5.824;2023-08-17T01:51:31;20.0;88.0
45383;DHT22;42455;51.660;5.824;2023-08-17T01:56:37;20.0;88.5
45383;DHT22;42455;51.660;5.824;2023-08-17T02:01:44;19.9;88.5
45383;DHT22;42455;51.660;5.824;2023-08-17T02:06:50;19.9;89.0
45383;DHT22;42455;51.660;5.824;2023-08-17T02:11:56;19.8;89.0
45383;DHT22;42455;51.660;5.824;2023-08-17T02:17:02;19.7;89.5
45383;DHT22;42455;51.660;5.824;2023-08-17T02:22:09;19.7;89.5
45383;DHT22;42455;51.660;5.824;2023-08-17T02:27:15;19.7;89.5
45383;DHT22;42455;51.660;5.824;2023-08-17T02:32:21;19.6;90.0
45383;DHT22;42455;51.660;5.824;2023-08-17T02:37:27;19.6;90.0
45383;DHT22;42455;51.660;5.824;2023-08-17T02:42:33;19.6;90.0
45383;DHT22;42455;51.660;5.824;2023-08-17T02:47:39;19.6;90.0
45383;DHT22;42455;51.660;5.824;2023-08-17T02:52:46;19.6;90.0
45383;DHT22;42455;51.660;5.824;2023-08-17T02:57:52;19.6;90.0
45383;DHT22;42455;51.660;5.824;2023-08-17T03:02:58;19.5;90.0
45383;DHT22;42455;51.660;5.824;2023-08-17T03:08:04;19.5;90.0
45383;DHT22;42455;51.660;5.824;2023-08-17T03:13:10;19.5;90.0
45383;DHT22;42455;51.660;5.824;2023-08-17T03:18:16;19.4;90.0
45383;DHT22;42455;51.660;5.824;2023-08-17T03:23:22;19.3;90.0
45383;DHT22;42455;51.660;5.824;2023-08-17T03:28:28;19.3;90.0
45383;DHT22;42455;51.660;5.824;2023-08-17T03:33:34;19.2;90.0
45383;DHT22;42455;51.660;5.824;2023-08-17T03:38:41;19.2;90.5
45383;DHT22;42455;51.660;5.824;2023-08-17T03:43:47;19.1;90.5
45383;DHT22;42455;51.660;5.824;2023-08-17T03:48:52;19.1;91.0
45383;DHT22;42455;51.660;5.824;2023-08-17T03:53:58;19.1;91.0
45383;DHT22;42455;51.660;5.824;2023-08-17T03:59:04;19.1;91.0
45383;DHT22;42455;51.660;5.824;2023-08-17T04:04:11;19.1;91.0
45383;DHT22;42455;51.660;5.824;2023-08-17T04:09:17;19.1;91.0
45383;DHT22;42455;51.660;5.824;2023-08-17T04:14:23;19.1;91.0
45383;DHT22;42455;51.660;5.824;2023-08-17T04:19:29;19.1;91.0
45383;DHT22;42455;51.660;5.824;2023-08-17T04:24:35;19.1;91.0
45383;DHT22;42455;51.660;5.824;2023-08-17T04:29:42;19.0;91.0
45383;DHT22;42455;51.660;5.824;2023-08-17T04:34:48;19.0;91.0
45383;DHT22;42455;51.660;5.824;2023-08-17T04:39:54;18.9;91.0
45383;DHT22;42455;51.660;5.824;2023-08-17T04:45:00;18.9;91.5
45383;DHT22;42455;51.660;5.824;2023-08-17T04:50:07;18.8;91.5
45383;DHT22;42455;51.660;5.824;2023-08-17T04:55:13;18.8;91.5
45383;DHT22;42455;51.660;5.824;2023-08-17T05:00:19;18.8;91.5
45383;DHT22;42455;51.660;5.824;2023-08-17T05:05:25;18.7;92.0
45383;DHT22;42455;51.660;5.824;2023-08-17T05:10:31;18.7;92.0
45383;DHT22;42455;51.660;5.824;2023-08-17T05:15:37;18.7;92.0
45383;DHT22;42455;51.660;5.824;2023-08-17T05:20:44;18.8;92.0
45383;DHT22;42455;51.660;5.824;2023-08-17T05:25:50;18.8;92.5
45383;DHT22;42455;51.660;5.824;2023-08-17T05:31:02;18.9;92.5
45383;DHT22;42455;51.660;5.824;2023-08-17T05:36:02;18.9;92.5
45383;DHT22;42455;51.660;5.824;2023-08-17T05:41:09;19.0;92.5
45383;DHT22;42455;51.660;5.824;2023-08-17T05:46:15;19.0;92.5
45383;DHT22;42455;51.660;5.824;2023-08-17T05:51:21;19.1;92.0
45383;DHT22;42455;51.660;5.824;2023-08-17T05:56:27;19.2;92.0
45383;DHT22;42455;51.660;5.824;2023-08-17T06:01:33;19.2;92.0
45383;DHT22;42455;51.660;5.824;2023-08-17T06:06:40;19.3;92.0
45383;DHT22;42455;51.660;5.824;2023-08-17T06:11:46;19.3;92.0
45383;DHT22;42455;51.660;5.824;2023-08-17T06:16:52;19.4;92.0
45383;DHT22;42455;51.660;5.824;2023-08-17T06:21:58;19.5;92.0
45383;DHT22;42455;51.660;5.824;2023-08-17T06:27:04;19.7;92.0
45383;DHT22;42455;51.660;5.824;2023-08-17T06:32:11;19.7;92.0
45383;DHT22;42455;51.660;5.824;2023-08-17T06:37:17;19.8;92.0
45383;DHT22;42455;51.660;5.824;2023-08-17T06:42:23;19.9;91.5
45383;DHT22;42455;51.660;5.824;2023-08-17T06:52:36;20.0;91.5
45383;DHT22;42455;51.660;5.824;2023-08-17T06:57:42;20.1;91.5
45383;DHT22;42455;51.660;5.824;2023-08-17T07:02:48;20.1;91.5
45383;DHT22;42455;51.660;5.824;2023-08-17T07:07:54;20.2;91.0
45383;DHT22;42455;51.660;5.824;2023-08-17T07:13:00;20.2;91.0
45383;DHT22;42455;51.660;5.824;2023-08-17T07:18:07;20.2;91.0
45383;DHT22;42455;51.660;5.824;2023-08-17T07:23:13;20.2;91.0
45383;DHT22;42455;51.660;5.824;2023-08-17T07:28:19;20.2;91.0
45383;DHT22;42455;51.660;5.824;2023-08-17T07:33:25;20.3;91.0
45383;DHT22;42455;51.660;5.824;2023-08-17T07:38:32;20.3;91.0
45383;DHT22;42455;51.660;5.824;2023-08-17T07:43:38;20.3;90.5
45383;DHT22;42455;51.660;5.824;2023-08-17T07:48:44;20.3;90.5
45383;DHT22;42455;51.660;5.824;2023-08-17T07:53:50;20.3;90.5
45383;DHT22;42455;51.660;5.824;2023-08-17T07:58:56;20.3;90.5
45383;DHT22;42455;51.660;5.824;2023-08-17T08:04:02;20.3;91.0
45383;DHT22;42455;51.660;5.824;2023-08-17T08:09:09;20.4;91.0
45383;DHT22;42455;51.660;5.824;2023-08-17T08:14:15;20.4;90.5
45383;DHT22;42455;51.660;5.824;2023-08-17T08:19:21;20.4;90.5
45383;DHT22;42455;51.660;5.824;2023-08-17T08:24:27;20.4;91.0
45383;DHT22;42455;51.660;5.824;2023-08-17T08:29:33;20.4;90.5
45383;DHT22;42455;51.660;5.824;2023-08-17T08:34:40;20.4;90.5
45383;DHT22;42455;51.660;5.824;2023-08-17T08:39:50;20.4;91.0
45383;DHT22;42455;51.660;5.824;2023-08-17T08:44:52;20.5;91.0
45383;DHT22;42455;51.660;5.824;2023-08-17T08:50:05;20.5;91.0
45383;DHT22;42455;51.660;5.824;2023-08-17T08:55:10;20.5;90.5
45383;DHT22;42455;51.660;5.824;2023-08-17T09:00:11;20.5;91.0
45383;DHT22;42455;51.660;5.824;2023-08-17T09:05:17;20.6;91.0
45383;DHT22;42455;51.660;5.824;2023-08-17T09:10:23;20.6;91.0
45383;DHT22;42455;51.660;5.824;2023-08-17T09:15:29;20.7;91.0
45383;DHT22;42455;51.660;5.824;2023-08-17T09:20:39;20.8;91.0
45383;DHT22;42455;51.660;5.824;2023-08-17T09:25:43;20.8;90.5
45383;DHT22;42455;51.660;5.824;2023-08-17T09:30:50;20.8;90.5
45383;DHT22;42455;51.660;5.824;2023-08-17T09:35:55;20.9;90.5
45383;DHT22;42455;51.660;5.824;2023-08-17T09:40:59;20.9;90.5
45383;DHT22;42455;51.660;5.824;2023-08-17T09:46:06;21.0;90.5
45383;DHT22;42455;51.660;5.824;2023-08-17T09:51:14;21.1;90.5
45383;DHT22;42455;51.660;5.824;2023-08-17T09:56:19;21.2;90.5
45383;DHT22;42455;51.660;5.824;2023-08-17T10:01:25;21.3;90.5
45383;DHT22;42455;51.660;5.824;2023-08-17T10:06:39;21.4;90.5
45383;DHT22;42455;51.660;5.824;2023-08-17T10:11:37;21.4;90.5
45383;DHT22;42455;51.660;5.824;2023-08-17T10:17:04;21.5;90.5
45383;DHT22;42455;51.660;5.824;2023-08-17T10:22:06;21.7;90.5
45383;DHT22;42455;51.660;5.824;2023-08-17T10:26:55;21.8;90.0
45383;DHT22;42455;51.660;5.824;2023-08-17T10:32:02;21.9;89.5
45383;DHT22;42455;51.660;5.824;2023-08-17T10:37:08;21.9;89.5
45383;DHT22;42455;51.660;5.824;2023-08-17T10:42:14;21.9;89.5
45383;DHT22;42455;51.660;5.824;2023-08-17T10:47:23;21.9;89.5
45383;DHT22;42455;51.660;5.824;2023-08-17T10:52:28;21.9;89.5
45383;DHT22;42455;51.660;5.824;2023-08-17T10:57:34;22.0;89.5
45383;DHT22;42455;51.660;5.824;2023-08-17T11:02:39;22.0;89.0
45383;DHT22;42455;51.660;5.824;2023-08-17T11:07:45;22.0;89.0
45383;DHT22;42455;51.660;5.824;2023-08-17T11:12:52;22.1;89.0
45383;DHT22;42455;51.660;5.824;2023-08-17T11:17:58;22.1;89.0
45383;DHT22;42455;51.660;5.824;2023-08-17T11:23:04;22.1;89.0
45383;DHT22;42455;51.660;5.824;2023-08-17T11:28:10;22.2;89.5
45383;DHT22;42455;51.660;5.824;2023-08-17T11:33:16;22.3;89.0
45383;DHT22;42455;51.660;5.824;2023-08-17T11:38:22;22.3;89.0
45383;DHT22;42455;51.660;5.824;2023-08-17T11:43:29;22.4;89.0
45383;DHT22;42455;51.660;5.824;2023-08-17T11:48:36;22.4;89.0
45383;DHT22;42455;51.660;5.824;2023-08-17T11:53:41;22.4;88.5
45383;DHT22;42455;51.660;5.824;2023-08-17T11:58:47;22.4;88.5
45383;DHT22;42455;51.660;5.824;2023-08-17T12:03:53;22.4;88.5
45383;DHT22;42455;51.660;5.824;2023-08-17T12:08:59;22.4;89.0
45383;DHT22;42455;51.660;5.824;2023-08-17T12:14:11;22.5;89.5
45383;DHT22;42455;51.660;5.824;2023-08-17T12:19:12;22.6;89.0
45383;DHT22;42455;51.660;5.824;2023-08-17T12:24:18;22.6;89.0
45383;DHT22;42455;51.660;5.824;2023-08-17T12:29:24;22.6;89.0
45383;DHT22;42455;51.660;5.824;2023-08-17T12:34:30;22.7;88.5
45383;DHT22;42455;51.660;5.824;2023-08-17T12:39:37;22.6;88.5
45383;DHT22;42455;51.660;5.824;2023-08-17T12:44:43;22.6;88.5
45383;DHT22;42455;51.660;5.824;2023-08-17T12:49:49;22.6;88.5
45383;DHT22;42455;51.660;5.824;2023-08-17T12:54:55;22.6;88.5
45383;DHT22;42455;51.660;5.824;2023-08-17T13:00:02;22.6;89.0
45383;DHT22;42455;51.660;5.824;2023-08-17T13:05:08;22.7;89.0
45383;DHT22;42455;51.660;5.824;2023-08-17T13:10:14;22.7;88.5
45383;DHT22;42455;51.660;5.824;2023-08-17T13:15:20;22.7;89.0
45383;DHT22;42455;51.660;5.824;2023-08-17T13:20:26;22.7;89.0
45383;DHT22;42455;51.660;5.824;2023-08-17T13:25:33;22.7;89.0
45383;DHT22;42455;51.660;5.824;2023-08-17T13:30:39;22.7;89.0
45383;DHT22;42455;51.660;5.824;2023-08-17T13:35:45;22.8;89.0
45383;DHT22;42455;51.660;5.824;2023-08-17T13:40:51;22.8;89.0
45383;DHT22;42455;51.660;5.824;2023-08-17T13:45:57;22.9;89.0
45383;DHT22;42455;51.660;5.824;2023-08-17T13:51:04;22.9;89.0
45383;DHT22;42455;51.660;5.824;2023-08-17T13:56:10;23.0;89.0
45383;DHT22;42455;51.660;5.824;2023-08-17T14:01:16;23.1;89.0
45383;DHT22;42455;51.660;5.824;2023-08-17T14:06:22;23.2;88.5
45383;DHT22;42455;51.660;5.824;2023-08-17T14:11:28;23.2;88.5
45383;DHT22;42455;51.660;5.824;2023-08-17T14:16:35;23.2;88.5
45383;DHT22;42455;51.660;5.824;2023-08-17T14:21:41;23.2;88.5
45383;DHT22;42455;51.660;5.824;2023-08-17T14:26:47;23.3;88.5
45383;DHT22;42455;51.660;5.824;2023-08-17T14:31:53;23.3;88.5
45383;DHT22;42455;51.660;5.824;2023-08-17T14:36:59;23.3;88.5
45383;DHT22;42455;51.660;5.824;2023-08-17T14:42:06;23.3;88.5
45383;DHT22;42455;51.660;5.824;2023-08-17T14:47:12;23.3;88.0
45383;DHT22;42455;51.660;5.824;2023-08-17T14:52:17;23.2;88.0
45383;DHT22;42455;51.660;5.824;2023-08-17T14:57:23;23.1;88.5
45383;DHT22;42455;51.660;5.824;2023-08-17T15:02:30;23.1;88.5
45383;DHT22;42455;51.660;5.824;2023-08-17T15:07:36;23.0;88.5
45383;DHT22;42455;51.660;5.824;2023-08-17T15:12:42;22.9;88.5
45383;DHT22;42455;51.660;5.824;2023-08-17T15:17:48;22.9;89.0
45383;DHT22;42455;51.660;5.824;2023-08-17T15:22:54;22.8;89.0
45383;DHT22;42455;51.660;5.824;2023-08-17T15:28:01;22.8;89.0
45383;DHT22;42455;51.660;5.824;2023-08-17T15:33:07;22.7;89.5
45383;DHT22;42455;51.660;5.824;2023-08-17T15:38:13;22.6;89.5
45383;DHT22;42455;51.660;5.824;2023-08-17T15:43:19;22.6;90.0
45383;DHT22;42455;51.660;5.824;2023-08-17T15:48:26;22.6;90.0
45383;DHT22;42455;51.660;5.824;2023-08-17T15:53:32;22.5;90.0
45383;DHT22;42455;51.660;5.824;2023-08-17T15:58:38;22.5;90.5
45383;DHT22;42455;51.660;5.824;2023-08-17T16:03:44;22.4;90.5
45383;DHT22;42455;51.660;5.824;2023-08-17T16:08:50;22.4;90.5
45383;DHT22;42455;51.660;5.824;2023-08-17T16:13:57;22.3;90.5
45383;DHT22;42455;51.660;5.824;2023-08-17T16:19:03;22.3;90.5
45383;DHT22;42455;51.660;5.824;2023-08-17T16:24:09;22.3;91.0
45383;DHT22;42455;51.660;5.824;2023-08-17T16:29:15;22.2;91.0
45383;DHT22;42455;51.660;5.824;2023-08-17T16:34:21;22.2;91.0
45383;DHT22;42455;51.660;5.824;2023-08-17T16:39:28;22.2;91.5
45383;DHT22;42455;51.660;5.824;2023-08-17T16:44:34;22.1;91.5
45383;DHT22;42455;51.660;5.824;2023-08-17T16:49:40;22.1;91.5
45383;DHT22;42455;51.660;5.824;2023-08-17T16:54:46;22.1;91.5
45383;DHT22;42455;51.660;5.824;2023-08-17T16:59:52;22.1;92.0
45383;DHT22;42455;51.660;5.824;2023-08-17T17:04:59;22.1;92.0
45383;DHT22;42455;51.660;5.824;2023-08-17T17:10:05;22.1;92.0
45383;DHT22;42455;51.660;5.824;2023-08-17T17:15:11;22.1;92.0
45383;DHT22;42455;51.660;5.824;2023-08-17T17:20:17;22.1;92.0
45383;DHT22;42455;51.660;5.824;2023-08-17T17:25:23;22.1;92.0
45383;DHT22;42455;51.660;5.824;2023-08-17T17:30:30;22.1;92.0
45383;DHT22;42455;51.660;5.824;2023-08-17T17:35:36;22.1;92.0
45383;DHT22;42455;51.660;5.824;2023-08-17T17:40:42;22.0;92.5
45383;DHT22;42455;51.660;5.824;2023-08-17T17:45:48;22.0;92.5
45383;DHT22;42455;51.660;5.824;2023-08-17T17:50:54;22.0;92.5
45383;DHT22;42455;51.660;5.824;2023-08-17T17:56:01;21.9;92.5
45383;DHT22;42455;51.660;5.824;2023-08-17T18:01:07;21.9;92.5
45383;DHT22;42455;51.660;5.824;2023-08-17T18:06:13;21.8;92.5
45383;DHT22;42455;51.660;5.824;2023-08-17T18:11:19;21.7;93.0
45383;DHT22;42455;51.660;5.824;2023-08-17T18:16:25;21.6;93.0
45383;DHT22;42455;51.660;5.824;2023-08-17T18:21:32;21.6;93.0
45383;DHT22;42455;51.660;5.824;2023-08-17T18:26:38;21.5;93.5
45383;DHT22;42455;51.660;5.824;2023-08-17T18:31:44;21.5;93.5
45383;DHT22;42455;51.660;5.824;2023-08-17T18:36:50;21.4;94.0
45383;DHT22;42455;51.660;5.824;2023-08-17T18:41:57;21.3;94.0
45383;DHT22;42455;51.660;5.824;2023-08-17T18:47:03;21.3;94.0
45383;DHT22;42455;51.660;5.824;2023-08-17T18:52:09;21.3;94.5
45383;DHT22;42455;51.660;5.824;2023-08-17T18:57:15;21.3;94.5
45383;DHT22;42455;51.660;5.824;2023-08-17T19:02:21;21.2;94.5
45383;DHT22;42455;51.660;5.824;2023-08-17T19:07:28;21.2;95.0
45383;DHT22;42455;51.660;5.824;2023-08-17T19:12:34;21.2;95.0
45383;DHT22;42455;51.660;5.824;2023-08-17T19:17:40;21.2;95.0
45383;DHT22;42455;51.660;5.824;2023-08-17T19:22:46;21.2;95.5
45383;DHT22;42455;51.660;5.824;2023-08-17T19:27:52;21.2;95.5
45383;DHT22;42455;51.660;5.824;2023-08-17T19:32:59;21.2;95.5
45383;DHT22;42455;51.660;5.824;2023-08-17T19:38:05;21.2;95.5
45383;DHT22;42455;51.660;5.824;2023-08-17T19:43:11;21.2;95.5
45383;DHT22;42455;51.660;5.824;2023-08-17T19:48:17;21.2;95.5
45383;DHT22;42455;51.660;5.824;2023-08-17T19:53:23;21.2;95.5
45383;DHT22;42455;51.660;5.824;2023-08-17T19:58:30;21.2;95.5
45383;DHT22;42455;51.660;5.824;2023-08-17T20:03:36;21.1;95.5
45383;DHT22;42455;51.660;5.824;2023-08-17T20:08:42;21.1;96.0
45383;DHT22;42455;51.660;5.824;2023-08-17T20:13:48;21.1;96.0
45383;DHT22;42455;51.660;5.824;2023-08-17T20:18:55;21.1;96.0
45383;DHT22;42455;51.660;5.824;2023-08-17T20:24:00;21.1;96.0
45383;DHT22;42455;51.660;5.824;2023-08-17T20:29:06;21.1;96.0
45383;DHT22;42455;51.660;5.824;2023-08-17T20:34:12;21.1;96.0
45383;DHT22;42455;51.660;5.824;2023-08-17T20:39:18;21.1;96.0
45383;DHT22;42455;51.660;5.824;2023-08-17T20:44:25;21.0;96.0
45383;DHT22;42455;51.660;5.824;2023-08-17T20:49:31;21.0;96.0
45383;DHT22;42455;51.660;5.824;2023-08-17T20:54:36;21.0;96.0
45383;DHT22;42455;51.660;5.824;2023-08-17T20:59:42;21.0;96.0
45383;DHT22;42455;51.660;5.824;2023-08-17T21:04:48;21.0;96.0
45383;DHT22;42455;51.660;5.824;2023-08-17T21:09:55;21.0;96.0
45383;DHT22;42455;51.660;5.824;2023-08-17T21:15:01;21.0;95.5
45383;DHT22;42455;51.660;5.824;2023-08-17T21:20:07;21.0;95.5
45383;DHT22;42455;51.660;5.824;2023-08-17T21:25:13;21.0;95.5
45383;DHT22;42455;51.660;5.824;2023-08-17T21:30:20;20.9;95.5
45383;DHT22;42455;51.660;5.824;2023-08-17T21:35:26;21.0;95.5
45383;DHT22;42455;51.660;5.824;2023-08-17T21:40:32;20.9;95.5
45383;DHT22;42455;51.660;5.824;2023-08-17T21:45:38;20.9;95.5
45383;DHT22;42455;51.660;5.824;2023-08-17T21:50:44;20.9;95.5
45383;DHT22;42455;51.660;5.824;2023-08-17T21:55:51;20.9;95.5
45383;DHT22;42455;51.660;5.824;2023-08-17T22:00:57;20.8;95.5
45383;DHT22;42455;51.660;5.824;2023-08-17T22:06:03;20.8;95.5
45383;DHT22;42455;51.660;5.824;2023-08-17T22:11:09;20.8;95.5
45383;DHT22;42455;51.660;5.824;2023-08-17T22:16:15;20.7;95.5
45383;DHT22;42455;51.660;5.824;2023-08-17T22:21:22;20.7;95.5
45383;DHT22;42455;51.660;5.824;2023-08-17T22:26:28;20.6;95.5
45383;DHT22;42455;51.660;5.824;2023-08-17T22:31:34;20.6;95.5
45383;DHT22;42455;51.660;5.824;2023-08-17T22:36:40;20.6;95.5
45383;DHT22;42455;51.660;5.824;2023-08-17T22:41:46;20.6;95.5
45383;DHT22;42455;51.660;5.824;2023-08-17T22:46:53;20.5;95.5
45383;DHT22;42455;51.660;5.824;2023-08-17T22:51:59;20.5;95.5
45383;DHT22;42455;51.660;5.824;2023-08-17T22:57:05;20.5;95.5
45383;DHT22;42455;51.660;5.824;2023-08-17T23:02:11;20.4;95.5
45383;DHT22;42455;51.660;5.824;2023-08-17T23:07:17;20.4;95.5
45383;DHT22;42455;51.660;5.824;2023-08-17T23:12:24;20.4;95.5
45383;DHT22;42455;51.660;5.824;2023-08-17T23:17:30;20.4;95.0
45383;DHT22;42455;51.660;5.824;2023-08-17T23:22:36;20.3;95.0
45383;DHT22;42455;51.660;5.824;2023-08-17T23:27:42;20.3;95.0
45383;DHT22;42455;51.660;5.824;2023-08-17T23:32:49;20.3;95.5
45383;DHT22;42455;51.660;5.824;2023-08-17T23:37:55;20.2;95.5
45383;DHT22;42455;51.660;5.824;2023-08-17T23:43:01;20.2;95.5
45383;DHT22;42455;51.660;5.824;2023-08-17T23:48:07;20.2;95.5
45383;DHT22;42455;51.660;5.824;2023-08-17T23:53:13;20.2;95.5
45383;DHT22;42455;51.660;5.824;2023-08-17T23:58:19;20.2;95.5
